Terminal Aerodrome Forecast
Issued by NWS Wilmington, OH

Home | Current Version | Previous Version | Text Only | Print | Product List | Glossary On
Versions: 1 2 3 4 5 6 7 8 9 10 11 12 13 14 15 16 17 18 19 20
000
FTUS41 KILN 241132
TAFDAY
TAF
KDAY 241132Z 2412/2512 30012KT P6SM OVC005
      TEMPO 2412/2414 3SM -DZ BR
     FM241800 29010KT P6SM OVC015
     FM242200 27008KT P6SM BKN025
     FM250300 19006KT P6SM BKN040=

USA.gov is the U.S. government's official web portal to all federal, state and local government web resources and services.